Terminal Aerodrome Forecast
Issued by NWS Jackson, KY

Home | Current Version | Previous Version | Text Only | Print | Product List | Glossary On
Versions: 1 2 3 4 5 6 7 8 9 10 11 12 13 14 15 16 17 18 19
000
FTUS43 KJKL 191139
TAFJKL
TAF
KJKL 191139Z 1912/2012 13006KT 6SM -SHRA BR BKN035 OVC090
     FM191400 14006KT 4SM -SHRA BR SCT015 BKN025 OVC090
     FM191600 15008KT 2SM -SHRA VCTS BKN015CB BKN120
     FM192100 16007G15KT P6SM VCTS BKN035CB BKN250
     FM200400 VRB06KT P6SM VCSH SCT025 BKN050=

USA.gov is the U.S. government's official web portal to all federal, state and local government web resources and services.